Terminal Aerodrome Forecast
Issued by NWS Amarillo, TX

Home | Current Version | Previous Version | Text Only | Print | Product List | Glossary On
Versions: 1 2 3 4 5 6 7 8 9 10 11 12 13 14
000
FTUS44 KAMA 291724
TAFDHT
TAF
KDHT 291724Z 2918/3018 VRB06KT P6SM SKC
     FM292200 VRB06KT P6SM VCSH BKN080
     FM292300 VRB06KT P6SM -TSRA BKN080CB OVC100CB
     FM300200 VRB06KT P6SM VCSH BKN100 OVC150
     FM300800 24005KT 3SM BR FEW003 OVC015
     FM301300 28006KT P6SM FEW200=

USA.gov is the U.S. government's official web portal to all federal, state and local government web resources and services.